Terminal Aerodrome Forecast
Issued by NWS Wilmington, OH

Current Version | Previous Version | Graphics & Text | Print | Product List | Glossary On
Versions: 1 2 3 4 5 6 7 8 9 10 11 12 13 14 15 16 17
995
FTUS41 KILN 152229 AAA
TAFCMH
TAF AMD
KCMH 152229Z 1522/1618 22011KT P6SM VCSH OVC008
     FM160500 26013KT P6SM OVC008
     FM161400 29013KT P6SM BKN015=

USA.gov is the U.S. government's official web portal to all federal, state and local government web resources and services.